sensor_id;sensor_type;location;lat;lon;timestamp;pressure;altitude;pressure_sealevel;temperature
35582;BMP180;21687;48.900;9.188;2023-04-12T00:01:32;97944.00;;;8.10
35582;BMP180;21687;48.900;9.188;2023-04-12T00:04:19;97941.00;;;8.10
35582;BMP180;21687;48.900;9.188;2023-04-12T00:07:07;97936.00;;;8.10
35582;BMP180;21687;48.900;9.188;2023-04-12T00:09:55;97929.00;;;8.10
35582;BMP180;21687;48.900;9.188;2023-04-12T00:12:42;97939.00;;;7.90
35582;BMP180;21687;48.900;9.188;2023-04-12T00:15:28;97943.00;;;7.80
35582;BMP180;21687;48.900;9.188;2023-04-12T00:18:15;97937.00;;;7.70
35582;BMP180;21687;48.900;9.188;2023-04-12T00:21:02;97923.00;;;7.70
35582;BMP180;21687;48.900;9.188;2023-04-12T00:23:48;97930.00;;;7.60
35582;BMP180;21687;48.900;9.188;2023-04-12T00:26:34;97930.00;;;7.60
35582;BMP180;21687;48.900;9.188;2023-04-12T00:29:21;97909.00;;;7.50
35582;BMP180;21687;48.900;9.188;2023-04-12T00:32:07;97919.00;;;7.50
35582;BMP180;21687;48.900;9.188;2023-04-12T00:34:54;97924.00;;;7.50
35582;BMP180;21687;48.900;9.188;2023-04-12T00:37:40;97920.00;;;7.50
35582;BMP180;21687;48.900;9.188;2023-04-12T00:40:27;97918.00;;;7.50
35582;BMP180;21687;48.900;9.188;2023-04-12T00:43:13;97921.00;;;7.50
35582;BMP180;21687;48.900;9.188;2023-04-12T00:46:04;97912.00;;;7.50
35582;BMP180;21687;48.900;9.188;2023-04-12T00:48:50;97913.00;;;7.40
35582;BMP180;21687;48.900;9.188;2023-04-12T00:51:37;97909.00;;;7.40
35582;BMP180;21687;48.900;9.188;2023-04-12T00:54:24;97907.00;;;7.40
35582;BMP180;21687;48.900;9.188;2023-04-12T00:57:11;97908.00;;;7.20
35582;BMP180;21687;48.900;9.188;2023-04-12T00:59:57;97907.00;;;7.10
35582;BMP180;21687;48.900;9.188;2023-04-12T01:02:45;97902.00;;;7.00
35582;BMP180;21687;48.900;9.188;2023-04-12T01:05:36;97895.00;;;6.90
35582;BMP180;21687;48.900;9.188;2023-04-12T01:08:42;97901.00;;;6.80
35582;BMP180;21687;48.900;9.188;2023-04-12T01:18:18;97900.00;;;6.60
35582;BMP180;21687;48.900;9.188;2023-04-12T01:21:15;97885.00;;;6.40
35582;BMP180;21687;48.900;9.188;2023-04-12T01:24:37;97882.00;;;6.60
35582;BMP180;21687;48.900;9.188;2023-04-12T01:27:47;97883.00;;;6.50
35582;BMP180;21687;48.900;9.188;2023-04-12T01:30:34;97873.00;;;6.50
35582;BMP180;21687;48.900;9.188;2023-04-12T01:33:21;97870.00;;;6.50
35582;BMP180;21687;48.900;9.188;2023-04-12T01:36:14;97872.00;;;6.50
35582;BMP180;21687;48.900;9.188;2023-04-12T01:39:02;97872.00;;;6.50
35582;BMP180;21687;48.900;9.188;2023-04-12T01:41:50;97853.00;;;6.40
35582;BMP180;21687;48.900;9.188;2023-04-12T01:44:36;97860.00;;;6.50
35582;BMP180;21687;48.900;9.188;2023-04-12T01:47:23;97849.00;;;6.50
35582;BMP180;21687;48.900;9.188;2023-04-12T01:50:22;97845.00;;;6.50
35582;BMP180;21687;48.900;9.188;2023-04-12T01:53:16;97845.00;;;6.50
35582;BMP180;21687;48.900;9.188;2023-04-12T01:56:07;97840.00;;;6.50
35582;BMP180;21687;48.900;9.188;2023-04-12T01:58:55;97836.00;;;6.50
35582;BMP180;21687;48.900;9.188;2023-04-12T02:01:43;97819.00;;;6.50
35582;BMP180;21687;48.900;9.188;2023-04-12T02:04:33;97812.00;;;6.60
35582;BMP180;21687;48.900;9.188;2023-04-12T02:07:21;97801.00;;;6.50
35582;BMP180;21687;48.900;9.188;2023-04-12T02:10:13;97803.00;;;6.50
35582;BMP180;21687;48.900;9.188;2023-04-12T02:13:00;97799.00;;;6.40
35582;BMP180;21687;48.900;9.188;2023-04-12T02:15:47;97798.00;;;6.30
35582;BMP180;21687;48.900;9.188;2023-04-12T02:18:35;97790.00;;;6.40
35582;BMP180;21687;48.900;9.188;2023-04-12T02:21:21;97784.00;;;6.40
35582;BMP180;21687;48.900;9.188;2023-04-12T02:24:08;97779.00;;;6.40
35582;BMP180;21687;48.900;9.188;2023-04-12T02:26:56;97775.00;;;6.30
35582;BMP180;21687;48.900;9.188;2023-04-12T02:29:43;97765.00;;;6.30
35582;BMP180;21687;48.900;9.188;2023-04-12T02:32:30;97757.00;;;6.40
35582;BMP180;21687;48.900;9.188;2023-04-12T02:35:18;97756.00;;;6.30
35582;BMP180;21687;48.900;9.188;2023-04-12T02:38:04;97756.00;;;6.30
35582;BMP180;21687;48.900;9.188;2023-04-12T02:40:53;97755.00;;;6.30
35582;BMP180;21687;48.900;9.188;2023-04-12T02:43:40;97751.00;;;6.30
35582;BMP180;21687;48.900;9.188;2023-04-12T02:46:27;97751.00;;;6.30
35582;BMP180;21687;48.900;9.188;2023-04-12T02:49:13;97736.00;;;6.30
35582;BMP180;21687;48.900;9.188;2023-04-12T02:52:00;97740.00;;;6.30
35582;BMP180;21687;48.900;9.188;2023-04-12T02:54:49;97726.00;;;6.30
35582;BMP180;21687;48.900;9.188;2023-04-12T02:57:36;97741.00;;;6.30
35582;BMP180;21687;48.900;9.188;2023-04-12T03:00:23;97725.00;;;6.40
35582;BMP180;21687;48.900;9.188;2023-04-12T03:03:09;97721.00;;;6.30
35582;BMP180;21687;48.900;9.188;2023-04-12T03:05:56;97689.00;;;6.30
35582;BMP180;21687;48.900;9.188;2023-04-12T03:08:43;97703.00;;;6.30
35582;BMP180;21687;48.900;9.188;2023-04-12T03:11:30;97700.00;;;6.30
35582;BMP180;21687;48.900;9.188;2023-04-12T03:14:16;97701.00;;;6.20
35582;BMP180;21687;48.900;9.188;2023-04-12T03:17:03;97693.00;;;6.10
35582;BMP180;21687;48.900;9.188;2023-04-12T03:19:49;97679.00;;;6.10
35582;BMP180;21687;48.900;9.188;2023-04-12T03:22:36;97674.00;;;6.10
35582;BMP180;21687;48.900;9.188;2023-04-12T03:25:23;97674.00;;;6.10
35582;BMP180;21687;48.900;9.188;2023-04-12T03:28:10;97668.00;;;6.10
35582;BMP180;21687;48.900;9.188;2023-04-12T03:30:56;97657.00;;;6.10
35582;BMP180;21687;48.900;9.188;2023-04-12T03:33:43;97647.00;;;6.10
35582;BMP180;21687;48.900;9.188;2023-04-12T03:36:29;97654.00;;;6.00
35582;BMP180;21687;48.900;9.188;2023-04-12T03:39:16;97641.00;;;6.10
35582;BMP180;21687;48.900;9.188;2023-04-12T03:42:03;97632.00;;;6.10
35582;BMP180;21687;48.900;9.188;2023-04-12T03:44:49;97631.00;;;6.10
35582;BMP180;21687;48.900;9.188;2023-04-12T03:47:37;97645.00;;;6.10
35582;BMP180;21687;48.900;9.188;2023-04-12T03:50:24;97639.00;;;6.10
35582;BMP180;21687;48.900;9.188;2023-04-12T03:53:11;97629.00;;;6.10
35582;BMP180;21687;48.900;9.188;2023-04-12T03:55:57;97625.00;;;6.10
35582;BMP180;21687;48.900;9.188;2023-04-12T03:58:44;97624.00;;;6.10
35582;BMP180;21687;48.900;9.188;2023-04-12T04:01:31;97612.00;;;6.10
35582;BMP180;21687;48.900;9.188;2023-04-12T04:04:17;97608.00;;;6.10
35582;BMP180;21687;48.900;9.188;2023-04-12T04:07:04;97608.00;;;6.10
35582;BMP180;21687;48.900;9.188;2023-04-12T04:09:50;97608.00;;;6.10
35582;BMP180;21687;48.900;9.188;2023-04-12T04:12:37;97600.00;;;6.10
35582;BMP180;21687;48.900;9.188;2023-04-12T04:15:26;97600.00;;;6.10
35582;BMP180;21687;48.900;9.188;2023-04-12T04:18:13;97582.00;;;6.10
35582;BMP180;21687;48.900;9.188;2023-04-12T04:20:59;97558.00;;;6.10
35582;BMP180;21687;48.900;9.188;2023-04-12T04:23:46;97577.00;;;6.10
35582;BMP180;21687;48.900;9.188;2023-04-12T04:26:33;97573.00;;;6.10
35582;BMP180;21687;48.900;9.188;2023-04-12T04:29:20;97564.00;;;6.10
35582;BMP180;21687;48.900;9.188;2023-04-12T04:32:07;97553.00;;;6.20
35582;BMP180;21687;48.900;9.188;2023-04-12T04:34:55;97560.00;;;6.20
35582;BMP180;21687;48.900;9.188;2023-04-12T04:37:45;97550.00;;;6.20
35582;BMP180;21687;48.900;9.188;2023-04-12T04:40:32;97553.00;;;6.10
35582;BMP180;21687;48.900;9.188;2023-04-12T04:43:18;97548.00;;;6.10
35582;BMP180;21687;48.900;9.188;2023-04-12T04:46:05;97549.00;;;6.20
35582;BMP180;21687;48.900;9.188;2023-04-12T04:48:52;97539.00;;;6.20
35582;BMP180;21687;48.900;9.188;2023-04-12T04:51:40;97548.00;;;6.20
35582;BMP180;21687;48.900;9.188;2023-04-12T04:54:26;97535.00;;;6.20
35582;BMP180;21687;48.900;9.188;2023-04-12T04:57:13;97536.00;;;6.20
35582;BMP180;21687;48.900;9.188;2023-04-12T05:00:00;97543.00;;;6.10
35582;BMP180;21687;48.900;9.188;2023-04-12T05:02:46;97538.00;;;6.10
35582;BMP180;21687;48.900;9.188;2023-04-12T05:05:33;97535.00;;;6.20
35582;BMP180;21687;48.900;9.188;2023-04-12T05:08:19;97540.00;;;6.10
35582;BMP180;21687;48.900;9.188;2023-04-12T05:11:06;97538.00;;;6.20
35582;BMP180;21687;48.900;9.188;2023-04-12T05:13:52;97532.00;;;6.20
35582;BMP180;21687;48.900;9.188;2023-04-12T05:16:39;97534.00;;;6.20
35582;BMP180;21687;48.900;9.188;2023-04-12T05:19:26;97531.00;;;6.20
35582;BMP180;21687;48.900;9.188;2023-04-12T05:22:12;97520.00;;;6.20
35582;BMP180;21687;48.900;9.188;2023-04-12T05:24:59;97519.00;;;6.20
35582;BMP180;21687;48.900;9.188;2023-04-12T05:27:47;97512.00;;;6.20
35582;BMP180;21687;48.900;9.188;2023-04-12T05:30:33;97511.00;;;6.20
35582;BMP180;21687;48.900;9.188;2023-04-12T05:33:20;97501.00;;;6.20
35582;BMP180;21687;48.900;9.188;2023-04-12T05:36:07;97495.00;;;6.20
35582;BMP180;21687;48.900;9.188;2023-04-12T05:38:53;97488.00;;;6.20
35582;BMP180;21687;48.900;9.188;2023-04-12T05:41:40;97489.00;;;6.20
35582;BMP180;21687;48.900;9.188;2023-04-12T05:44:26;97478.00;;;6.20
35582;BMP180;21687;48.900;9.188;2023-04-12T05:47:13;97478.00;;;6.20
35582;BMP180;21687;48.900;9.188;2023-04-12T05:49:59;97472.00;;;6.20
35582;BMP180;21687;48.900;9.188;2023-04-12T05:52:46;97465.00;;;6.20
35582;BMP180;21687;48.900;9.188;2023-04-12T05:55:33;97456.00;;;6.20
35582;BMP180;21687;48.900;9.188;2023-04-12T05:58:20;97461.00;;;6.20
35582;BMP180;21687;48.900;9.188;2023-04-12T06:01:06;97448.00;;;6.30
35582;BMP180;21687;48.900;9.188;2023-04-12T06:03:53;97447.00;;;6.30
35582;BMP180;21687;48.900;9.188;2023-04-12T06:06:39;97440.00;;;6.30
35582;BMP180;21687;48.900;9.188;2023-04-12T06:09:26;97432.00;;;6.40
35582;BMP180;21687;48.900;9.188;2023-04-12T06:12:13;97436.00;;;6.40
35582;BMP180;21687;48.900;9.188;2023-04-12T06:14:59;97436.00;;;6.40
35582;BMP180;21687;48.900;9.188;2023-04-12T06:17:46;97419.00;;;6.40
35582;BMP180;21687;48.900;9.188;2023-04-12T06:20:32;97402.00;;;6.40
35582;BMP180;21687;48.900;9.188;2023-04-12T06:23:19;97403.00;;;6.30
35582;BMP180;21687;48.900;9.188;2023-04-12T06:26:05;97398.00;;;6.40
35582;BMP180;21687;48.900;9.188;2023-04-12T06:28:52;97395.00;;;6.40
35582;BMP180;21687;48.900;9.188;2023-04-12T06:31:38;97392.00;;;6.50
35582;BMP180;21687;48.900;9.188;2023-04-12T06:34:25;97386.00;;;6.50
35582;BMP180;21687;48.900;9.188;2023-04-12T06:37:11;97375.00;;;6.40
35582;BMP180;21687;48.900;9.188;2023-04-12T06:39:58;97373.00;;;6.50
35582;BMP180;21687;48.900;9.188;2023-04-12T06:42:45;97376.00;;;6.60
35582;BMP180;21687;48.900;9.188;2023-04-12T06:45:31;97368.00;;;6.60
35582;BMP180;21687;48.900;9.188;2023-04-12T06:48:18;97356.00;;;6.60
35582;BMP180;21687;48.900;9.188;2023-04-12T06:51:05;97354.00;;;6.60
35582;BMP180;21687;48.900;9.188;2023-04-12T06:53:51;97348.00;;;6.70
35582;BMP180;21687;48.900;9.188;2023-04-12T06:56:38;97351.00;;;6.80
35582;BMP180;21687;48.900;9.188;2023-04-12T06:59:24;97350.00;;;6.90
35582;BMP180;21687;48.900;9.188;2023-04-12T07:02:11;97322.00;;;6.80
35582;BMP180;21687;48.900;9.188;2023-04-12T07:04:58;97332.00;;;6.80
35582;BMP180;21687;48.900;9.188;2023-04-12T07:07:44;97317.00;;;6.90
35582;BMP180;21687;48.900;9.188;2023-04-12T07:10:31;97320.00;;;6.90
35582;BMP180;21687;48.900;9.188;2023-04-12T07:13:18;97320.00;;;7.00
35582;BMP180;21687;48.900;9.188;2023-04-12T07:16:05;97309.00;;;7.00
35582;BMP180;21687;48.900;9.188;2023-04-12T07:18:51;97313.00;;;7.20
35582;BMP180;21687;48.900;9.188;2023-04-12T07:21:38;97304.00;;;7.40
35582;BMP180;21687;48.900;9.188;2023-04-12T07:24:24;97288.00;;;7.30
35582;BMP180;21687;48.900;9.188;2023-04-12T07:27:11;97284.00;;;7.40
35582;BMP180;21687;48.900;9.188;2023-04-12T07:29:57;97266.00;;;7.30
35582;BMP180;21687;48.900;9.188;2023-04-12T07:32:44;97273.00;;;7.40
35582;BMP180;21687;48.900;9.188;2023-04-12T07:35:31;97274.00;;;7.50
35582;BMP180;21687;48.900;9.188;2023-04-12T07:38:18;97271.00;;;7.70
35582;BMP180;21687;48.900;9.188;2023-04-12T07:41:04;97254.00;;;7.80
35582;BMP180;21687;48.900;9.188;2023-04-12T07:43:51;97240.00;;;7.70
35582;BMP180;21687;48.900;9.188;2023-04-12T07:46:40;97228.00;;;7.90
35582;BMP180;21687;48.900;9.188;2023-04-12T07:49:27;97223.00;;;7.90
35582;BMP180;21687;48.900;9.188;2023-04-12T07:52:14;97212.00;;;8.00
35582;BMP180;21687;48.900;9.188;2023-04-12T07:55:00;97213.00;;;7.90
35582;BMP180;21687;48.900;9.188;2023-04-12T07:57:47;97206.00;;;8.00
35582;BMP180;21687;48.900;9.188;2023-04-12T08:00:33;97183.00;;;8.00
35582;BMP180;21687;48.900;9.188;2023-04-12T08:03:20;97207.00;;;8.00
35582;BMP180;21687;48.900;9.188;2023-04-12T08:06:07;97202.00;;;8.10
35582;BMP180;21687;48.900;9.188;2023-04-12T08:08:53;97191.00;;;8.10
35582;BMP180;21687;48.900;9.188;2023-04-12T08:11:40;97192.00;;;8.20
35582;BMP180;21687;48.900;9.188;2023-04-12T08:14:26;97194.00;;;8.40
35582;BMP180;21687;48.900;9.188;2023-04-12T08:17:13;97187.00;;;8.40
35582;BMP180;21687;48.900;9.188;2023-04-12T08:20:00;97183.00;;;8.60
35582;BMP180;21687;48.900;9.188;2023-04-12T08:22:48;97184.00;;;8.40
35582;BMP180;21687;48.900;9.188;2023-04-12T08:25:35;97182.00;;;8.40
35582;BMP180;21687;48.900;9.188;2023-04-12T08:28:21;97159.00;;;8.50
35582;BMP180;21687;48.900;9.188;2023-04-12T08:31:08;97170.00;;;8.50
35582;BMP180;21687;48.900;9.188;2023-04-12T08:33:54;97180.00;;;8.50
35582;BMP180;21687;48.900;9.188;2023-04-12T08:36:41;97171.00;;;8.50
35582;BMP180;21687;48.900;9.188;2023-04-12T08:39:29;97172.00;;;8.40
35582;BMP180;21687;48.900;9.188;2023-04-12T08:42:16;97183.00;;;8.50
35582;BMP180;21687;48.900;9.188;2023-04-12T08:45:08;97189.00;;;8.50
35582;BMP180;21687;48.900;9.188;2023-04-12T08:47:55;97176.00;;;8.60
35582;BMP180;21687;48.900;9.188;2023-04-12T08:50:43;97182.00;;;8.80
35582;BMP180;21687;48.900;9.188;2023-04-12T08:53:32;97176.00;;;8.90
35582;BMP180;21687;48.900;9.188;2023-04-12T08:56:19;97165.00;;;8.90
35582;BMP180;21687;48.900;9.188;2023-04-12T08:59:08;97173.00;;;8.90
35582;BMP180;21687;48.900;9.188;2023-04-12T09:01:56;97165.00;;;8.90
35582;BMP180;21687;48.900;9.188;2023-04-12T09:04:47;97143.00;;;9.10
35582;BMP180;21687;48.900;9.188;2023-04-12T09:07:34;97154.00;;;9.30
35582;BMP180;21687;48.900;9.188;2023-04-12T09:10:37;97155.00;;;9.40
35582;BMP180;21687;48.900;9.188;2023-04-12T09:13:34;97143.00;;;9.40
35582;BMP180;21687;48.900;9.188;2023-04-12T09:16:39;97138.00;;;9.40
35582;BMP180;21687;48.900;9.188;2023-04-12T09:19:34;97137.00;;;9.40
35582;BMP180;21687;48.900;9.188;2023-04-12T09:22:32;97133.00;;;9.50
35582;BMP180;21687;48.900;9.188;2023-04-12T09:25:41;97132.00;;;9.60
35582;BMP180;21687;48.900;9.188;2023-04-12T09:28:31;97131.00;;;9.70
35582;BMP180;21687;48.900;9.188;2023-04-12T09:31:17;97124.00;;;9.80
35582;BMP180;21687;48.900;9.188;2023-04-12T09:34:07;97107.00;;;9.80
35582;BMP180;21687;48.900;9.188;2023-04-12T09:36:54;97110.00;;;9.80
35582;BMP180;21687;48.900;9.188;2023-04-12T09:39:41;97114.00;;;9.90
35582;BMP180;21687;48.900;9.188;2023-04-12T09:42:28;97113.00;;;10.10
35582;BMP180;21687;48.900;9.188;2023-04-12T09:45:22;97109.00;;;10.10
35582;BMP180;21687;48.900;9.188;2023-04-12T09:48:18;97108.00;;;10.20
35582;BMP180;21687;48.900;9.188;2023-04-12T09:51:06;97103.00;;;10.30
35582;BMP180;21687;48.900;9.188;2023-04-12T09:53:58;97104.00;;;10.40
35582;BMP180;21687;48.900;9.188;2023-04-12T09:56:45;97098.00;;;10.40
35582;BMP180;21687;48.900;9.188;2023-04-12T09:59:34;97111.00;;;10.50
35582;BMP180;21687;48.900;9.188;2023-04-12T10:02:26;97089.00;;;10.60
35582;BMP180;21687;48.900;9.188;2023-04-12T10:05:14;97074.00;;;10.70
35582;BMP180;21687;48.900;9.188;2023-04-12T10:08:01;97097.00;;;10.80
35582;BMP180;21687;48.900;9.188;2023-04-12T10:10:52;97083.00;;;10.90
35582;BMP180;21687;48.900;9.188;2023-04-12T10:13:39;97093.00;;;10.90
35582;BMP180;21687;48.900;9.188;2023-04-12T10:16:26;97089.00;;;10.90
35582;BMP180;21687;48.900;9.188;2023-04-12T10:19:13;97086.00;;;11.00
35582;BMP180;21687;48.900;9.188;2023-04-12T10:22:00;97075.00;;;11.10
35582;BMP180;21687;48.900;9.188;2023-04-12T10:24:48;97073.00;;;11.50
35582;BMP180;21687;48.900;9.188;2023-04-12T10:27:34;97080.00;;;11.70
35582;BMP180;21687;48.900;9.188;2023-04-12T10:30:25;97078.00;;;12.00
35582;BMP180;21687;48.900;9.188;2023-04-12T10:33:13;97066.00;;;12.20
35582;BMP180;21687;48.900;9.188;2023-04-12T10:36:02;97081.00;;;12.50
35582;BMP180;21687;48.900;9.188;2023-04-12T10:39:08;97076.00;;;12.60
35582;BMP180;21687;48.900;9.188;2023-04-12T10:42:25;97071.00;;;12.60
35582;BMP180;21687;48.900;9.188;2023-04-12T10:51:23;97093.00;;;13.10
35582;BMP180;21687;48.900;9.188;2023-04-12T10:57:04;97064.00;;;13.40
35582;BMP180;21687;48.900;9.188;2023-04-12T10:59:54;97070.00;;;13.50
35582;BMP180;21687;48.900;9.188;2023-04-12T11:03:05;97061.00;;;13.80
35582;BMP180;21687;48.900;9.188;2023-04-12T11:06:02;97052.00;;;14.00
35582;BMP180;21687;48.900;9.188;2023-04-12T11:08:53;97058.00;;;14.10
35582;BMP180;21687;48.900;9.188;2023-04-12T11:11:40;97046.00;;;14.10
35582;BMP180;21687;48.900;9.188;2023-04-12T11:14:45;97051.00;;;14.40
35582;BMP180;21687;48.900;9.188;2023-04-12T11:17:31;97046.00;;;14.70
35582;BMP180;21687;48.900;9.188;2023-04-12T11:20:19;97047.00;;;14.90
35582;BMP180;21687;48.900;9.188;2023-04-12T11:23:06;97033.00;;;14.90
35582;BMP180;21687;48.900;9.188;2023-04-12T11:25:52;97042.00;;;14.80
35582;BMP180;21687;48.900;9.188;2023-04-12T11:28:39;97038.00;;;14.60
35582;BMP180;21687;48.900;9.188;2023-04-12T11:31:26;97029.00;;;14.50
35582;BMP180;21687;48.900;9.188;2023-04-12T11:34:12;97042.00;;;14.30
35582;BMP180;21687;48.900;9.188;2023-04-12T11:37:01;97035.00;;;14.40
35582;BMP180;21687;48.900;9.188;2023-04-12T11:39:56;97029.00;;;14.30
35582;BMP180;21687;48.900;9.188;2023-04-12T11:42:42;97032.00;;;14.70
35582;BMP180;21687;48.900;9.188;2023-04-12T11:45:29;97019.00;;;14.80
35582;BMP180;21687;48.900;9.188;2023-04-12T11:48:17;97025.00;;;14.70
35582;BMP180;21687;48.900;9.188;2023-04-12T11:51:20;97023.00;;;14.90
35582;BMP180;21687;48.900;9.188;2023-04-12T11:54:07;97013.00;;;15.30
35582;BMP180;21687;48.900;9.188;2023-04-12T11:56:56;97009.00;;;15.50
35582;BMP180;21687;48.900;9.188;2023-04-12T11:59:47;97008.00;;;15.50
35582;BMP180;21687;48.900;9.188;2023-04-12T12:02:34;97012.00;;;15.30
35582;BMP180;21687;48.900;9.188;2023-04-12T12:05:21;96998.00;;;15.10
35582;BMP180;21687;48.900;9.188;2023-04-12T12:08:08;97005.00;;;15.00
35582;BMP180;21687;48.900;9.188;2023-04-12T12:10:56;96987.00;;;14.90
35582;BMP180;21687;48.900;9.188;2023-04-12T12:13:47;97000.00;;;15.10
35582;BMP180;21687;48.900;9.188;2023-04-12T12:16:33;96996.00;;;15.20
35582;BMP180;21687;48.900;9.188;2023-04-12T12:19:36;96991.00;;;15.10
35582;BMP180;21687;48.900;9.188;2023-04-12T12:22:22;96978.00;;;15.20
35582;BMP180;21687;48.900;9.188;2023-04-12T12:25:11;96976.00;;;15.30
35582;BMP180;21687;48.900;9.188;2023-04-12T12:27:57;96984.00;;;15.10
35582;BMP180;21687;48.900;9.188;2023-04-12T12:30:44;96991.00;;;15.50
35582;BMP180;21687;48.900;9.188;2023-04-12T12:33:40;96988.00;;;15.00
35582;BMP180;21687;48.900;9.188;2023-04-12T12:36:32;96996.00;;;15.00
35582;BMP180;21687;48.900;9.188;2023-04-12T12:39:19;96999.00;;;14.70
35582;BMP180;21687;48.900;9.188;2023-04-12T12:42:06;96978.00;;;14.70
35582;BMP180;21687;48.900;9.188;2023-04-12T12:44:52;96978.00;;;14.90
35582;BMP180;21687;48.900;9.188;2023-04-12T12:47:51;96967.00;;;15.10
35582;BMP180;21687;48.900;9.188;2023-04-12T12:50:38;96977.00;;;15.30
35582;BMP180;21687;48.900;9.188;2023-04-12T12:53:24;96973.00;;;15.40
35582;BMP180;21687;48.900;9.188;2023-04-12T12:56:12;96969.00;;;15.40
35582;BMP180;21687;48.900;9.188;2023-04-12T12:58:58;96969.00;;;15.50
35582;BMP180;21687;48.900;9.188;2023-04-12T13:01:45;96959.00;;;15.30
35582;BMP180;21687;48.900;9.188;2023-04-12T13:04:32;96966.00;;;15.40
35582;BMP180;21687;48.900;9.188;2023-04-12T13:07:19;96974.00;;;15.20
35582;BMP180;21687;48.900;9.188;2023-04-12T13:10:06;96967.00;;;15.30
35582;BMP180;21687;48.900;9.188;2023-04-12T13:12:53;96966.00;;;15.00
35582;BMP180;21687;48.900;9.188;2023-04-12T13:15:39;96971.00;;;15.00
35582;BMP180;21687;48.900;9.188;2023-04-12T13:18:26;96962.00;;;15.00
35582;BMP180;21687;48.900;9.188;2023-04-12T13:21:12;96930.00;;;15.20
35582;BMP180;21687;48.900;9.188;2023-04-12T13:23:59;96954.00;;;15.30
35582;BMP180;21687;48.900;9.188;2023-04-12T13:26:45;96957.00;;;15.60
35582;BMP180;21687;48.900;9.188;2023-04-12T13:29:32;96939.00;;;15.60
35582;BMP180;21687;48.900;9.188;2023-04-12T13:32:18;96938.00;;;16.10
35582;BMP180;21687;48.900;9.188;2023-04-12T13:35:05;96933.00;;;16.00
35582;BMP180;21687;48.900;9.188;2023-04-12T13:37:52;96941.00;;;16.10
35582;BMP180;21687;48.900;9.188;2023-04-12T13:40:38;96945.00;;;15.90
35582;BMP180;21687;48.900;9.188;2023-04-12T13:43:25;96938.00;;;15.70
35582;BMP180;21687;48.900;9.188;2023-04-12T13:46:11;96933.00;;;15.70
35582;BMP180;21687;48.900;9.188;2023-04-12T13:48:58;96933.00;;;15.80
35582;BMP180;21687;48.900;9.188;2023-04-12T13:51:45;96918.00;;;16.00
35582;BMP180;21687;48.900;9.188;2023-04-12T13:54:31;96918.00;;;16.00
35582;BMP180;21687;48.900;9.188;2023-04-12T13:57:18;96905.00;;;15.90
35582;BMP180;21687;48.900;9.188;2023-04-12T14:00:05;96908.00;;;15.80
35582;BMP180;21687;48.900;9.188;2023-04-12T14:02:51;96913.00;;;15.70
35582;BMP180;21687;48.900;9.188;2023-04-12T14:05:38;96906.00;;;15.60
35582;BMP180;21687;48.900;9.188;2023-04-12T14:08:25;96917.00;;;15.50
35582;BMP180;21687;48.900;9.188;2023-04-12T14:11:12;96910.00;;;15.30
35582;BMP180;21687;48.900;9.188;2023-04-12T14:13:59;96909.00;;;15.10
35582;BMP180;21687;48.900;9.188;2023-04-12T14:16:45;96893.00;;;14.90
35582;BMP180;21687;48.900;9.188;2023-04-12T14:19:32;96899.00;;;15.00
35582;BMP180;21687;48.900;9.188;2023-04-12T14:22:18;96908.00;;;15.00
35582;BMP180;21687;48.900;9.188;2023-04-12T14:25:05;96902.00;;;14.90
35582;BMP180;21687;48.900;9.188;2023-04-12T14:27:52;96896.00;;;14.40
35582;BMP180;21687;48.900;9.188;2023-04-12T14:30:38;96893.00;;;14.40
35582;BMP180;21687;48.900;9.188;2023-04-12T14:33:26;96886.00;;;14.40
35582;BMP180;21687;48.900;9.188;2023-04-12T14:36:13;96883.00;;;14.80
35582;BMP180;21687;48.900;9.188;2023-04-12T14:39:00;96879.00;;;15.00
35582;BMP180;21687;48.900;9.188;2023-04-12T14:41:49;96880.00;;;15.30
35582;BMP180;21687;48.900;9.188;2023-04-12T14:44:36;96871.00;;;15.40
35582;BMP180;21687;48.900;9.188;2023-04-12T14:47:22;96864.00;;;15.60
35582;BMP180;21687;48.900;9.188;2023-04-12T14:50:09;96863.00;;;15.50
35582;BMP180;21687;48.900;9.188;2023-04-12T14:52:56;96867.00;;;15.50
35582;BMP180;21687;48.900;9.188;2023-04-12T14:55:43;96870.00;;;15.50
35582;BMP180;21687;48.900;9.188;2023-04-12T14:58:33;96871.00;;;15.30
35582;BMP180;21687;48.900;9.188;2023-04-12T15:01:20;96872.00;;;15.10
35582;BMP180;21687;48.900;9.188;2023-04-12T15:04:08;96876.00;;;14.90
35582;BMP180;21687;48.900;9.188;2023-04-12T15:06:55;96889.00;;;14.50
35582;BMP180;21687;48.900;9.188;2023-04-12T15:09:41;96883.00;;;14.20
35582;BMP180;21687;48.900;9.188;2023-04-12T15:12:31;96937.00;;;13.60
35582;BMP180;21687;48.900;9.188;2023-04-12T15:15:19;96964.00;;;12.20
35582;BMP180;21687;48.900;9.188;2023-04-12T15:18:05;96968.00;;;11.00
35582;BMP180;21687;48.900;9.188;2023-04-12T15:20:52;96956.00;;;10.40
35582;BMP180;21687;48.900;9.188;2023-04-12T15:23:39;96965.00;;;10.00
35582;BMP180;21687;48.900;9.188;2023-04-12T15:26:30;96983.00;;;9.70
35582;BMP180;21687;48.900;9.188;2023-04-12T15:29:17;96975.00;;;9.50
35582;BMP180;21687;48.900;9.188;2023-04-12T15:32:04;96976.00;;;9.30
35582;BMP180;21687;48.900;9.188;2023-04-12T15:34:51;96989.00;;;9.20
35582;BMP180;21687;48.900;9.188;2023-04-12T15:37:37;97002.00;;;9.10
35582;BMP180;21687;48.900;9.188;2023-04-12T15:40:25;96999.00;;;9.10
35582;BMP180;21687;48.900;9.188;2023-04-12T15:43:11;96990.00;;;9.10
35582;BMP180;21687;48.900;9.188;2023-04-12T15:45:58;97003.00;;;9.10
35582;BMP180;21687;48.900;9.188;2023-04-12T15:48:46;96986.00;;;9.20
35582;BMP180;21687;48.900;9.188;2023-04-12T15:51:33;96991.00;;;9.30
35582;BMP180;21687;48.900;9.188;2023-04-12T15:54:20;97002.00;;;9.30
35582;BMP180;21687;48.900;9.188;2023-04-12T15:57:08;97012.00;;;9.40
35582;BMP180;21687;48.900;9.188;2023-04-12T15:59:57;96999.00;;;9.60
35582;BMP180;21687;48.900;9.188;2023-04-12T16:02:44;97001.00;;;9.70
35582;BMP180;21687;48.900;9.188;2023-04-12T16:05:35;97001.00;;;9.80
35582;BMP180;21687;48.900;9.188;2023-04-12T16:08:21;97002.00;;;9.90
35582;BMP180;21687;48.900;9.188;2023-04-12T16:11:09;96978.00;;;10.00
35582;BMP180;21687;48.900;9.188;2023-04-12T16:13:57;96992.00;;;10.10
35582;BMP180;21687;48.900;9.188;2023-04-12T16:16:43;96989.00;;;10.20
35582;BMP180;21687;48.900;9.188;2023-04-12T16:19:31;96993.00;;;10.40
35582;BMP180;21687;48.900;9.188;2023-04-12T16:22:18;97002.00;;;10.40
35582;BMP180;21687;48.900;9.188;2023-04-12T16:25:06;96983.00;;;10.40
35582;BMP180;21687;48.900;9.188;2023-04-12T16:27:54;97012.00;;;10.50
35582;BMP180;21687;48.900;9.188;2023-04-12T16:30:40;97005.00;;;10.60
35582;BMP180;21687;48.900;9.188;2023-04-12T16:33:27;97011.00;;;10.70